Time;durP1;ratioP1;P1;durP2;ratioP2;P2;SDS_P1;SDS_P2;PMS_P1;PMS_P2;Temp;Humidity;BMP_temperature;BMP_pressure;BME280_temperature;BME280_humidity;BME280_pressure;Samples;Min_cycle;Max_cycle;Signal;HPM_P1;HPM_P2
2023/01/15 00:00:15;;;;;;;44.22;41.33;;;;;;;;;;5001421;28;20049;-53
2023/01/15 00:02:41;;;;;;;45.55;42.55;;;;;;;;;;4997750;28;20387;-52
2023/01/15 00:05:07;;;;;;;40.92;38.22;;;;;;;;;;4991618;28;20026;-54
2023/01/15 00:07:33;;;;;;;41.65;38.85;;;;;;;;;;4991721;28;20034;-55
2023/01/15 00:09:59;;;;;;;40.85;38.10;;;;;;;;;;4991946;28;20031;-56
2023/01/15 00:12:25;;;;;;;43.03;40.22;;;;;;;;;;4991912;28;20459;-55
2023/01/15 00:14:51;;;;;;;37.95;35.35;;;;;;;;;;4991726;28;20031;-55
2023/01/15 00:17:17;;;;;;;38.78;36.15;;;;;;;;;;5008102;23;20119;-56
2023/01/15 00:19:43;;;;;;;35.13;32.63;;;;;;;;;;5047707;28;20030;-59
2023/01/15 00:22:09;;;;;;;32.92;30.52;;;;;;;;;;5049628;28;20018;-58
2023/01/15 00:27:38;;;;;;;30.00;27.80;;;;;;;;;;5034612;28;20555;-59
2023/01/15 00:30:04;;;;;;;26.90;24.80;;;;;;;;;;5033283;28;20091;-59
2023/01/15 00:32:30;;;;;;;26.50;24.40;;;;;;;;;;5034409;28;20036;-59
2023/01/15 00:34:59;;;;;;;26.35;24.25;;;;;;;;;;5032793;28;20021;-58
2023/01/15 00:37:25;;;;;;;22.73;20.83;;;;;;;;;;5033242;28;20051;-56
2023/01/15 00:39:51;;;;;;;24.42;22.42;;;;;;;;;;5032992;28;20083;-57
2023/01/15 00:42:18;;;;;;;24.42;22.42;;;;;;;;;;5033193;28;20120;-60
2023/01/15 00:44:45;;;;;;;24.38;22.38;;;;;;;;;;5033966;28;20025;-59
2023/01/15 00:47:13;;;;;;;25.50;23.50;;;;;;;;;;5032649;28;20048;-60
2023/01/15 00:49:40;;;;;;;25.27;23.27;;;;;;;;;;5033201;28;20030;-59
2023/01/15 00:52:06;;;;;;;24.13;22.13;;;;;;;;;;5034310;28;20397;-55
2023/01/15 00:54:32;;;;;;;24.60;22.60;;;;;;;;;;5032460;28;20037;-59
2023/01/15 00:56:58;;;;;;;21.95;20.05;;;;;;;;;;5032759;28;20026;-57
2023/01/15 00:59:24;;;;;;;21.38;19.48;;;;;;;;;;5033098;28;20582;-60
2023/01/15 01:01:50;;;;;;;21.63;19.73;;;;;;;;;;5032958;28;20026;-59
2023/01/15 01:04:16;;;;;;;20.05;18.25;;;;;;;;;;5033586;28;20097;-59
2023/01/15 01:06:42;;;;;;;21.50;19.60;;;;;;;;;;5032602;28;20474;-60
2023/01/15 01:09:13;;;;;;;21.67;19.77;;;;;;;;;;5032817;28;20028;-61
2023/01/15 01:11:39;;;;;;;20.83;19.02;;;;;;;;;;5033691;28;20029;-60
2023/01/15 01:14:05;;;;;;;21.33;19.42;;;;;;;;;;5033586;28;20474;-60
2023/01/15 01:16:36;;;;;;;19.80;18.00;;;;;;;;;;5033709;28;20029;-59
2023/01/15 01:19:04;;;;;;;19.30;17.50;;;;;;;;;;5032449;28;20099;-59
2023/01/15 01:21:30;;;;;;;18.60;16.80;;;;;;;;;;5033509;28;20030;-61
2023/01/15 01:24:00;;;;;;;18.23;16.50;;;;;;;;;;5033367;28;20021;-58
2023/01/15 01:26:26;;;;;;;17.52;15.82;;;;;;;;;;5032395;28;20024;-58
2023/01/15 01:28:53;;;;;;;17.70;16.00;;;;;;;;;;5032607;28;20067;-58
2023/01/15 01:31:19;;;;;;;17.58;15.88;;;;;;;;;;5032315;28;20095;-59
2023/01/15 01:33:48;;;;;;;17.08;15.38;;;;;;;;;;5032113;28;20021;-55
2023/01/15 01:36:14;;;;;;;16.90;15.20;;;;;;;;;;5017894;28;20374;-59
2023/01/15 01:38:40;;;;;;;15.63;13.93;;;;;;;;;;5036970;28;20033;-59
2023/01/15 01:41:06;;;;;;;15.20;13.60;;;;;;;;;;5034893;28;20056;-58
2023/01/15 01:43:51;;;;;;;15.20;13.40;;;;;;;;;;5031705;28;20018;-57
2023/01/15 01:46:17;;;;;;;14.90;12.55;;;;;;;;;;5033184;28;20100;-60
2023/01/15 01:48:42;;;;;;;14.80;12.38;;;;;;;;;;5031954;28;20437;-59
2023/01/15 01:51:09;;;;;;;14.60;11.73;;;;;;;;;;5033277;28;20060;-59
2023/01/15 01:53:35;;;;;;;14.63;11.65;;;;;;;;;;5031683;28;20058;-59
2023/01/15 01:56:01;;;;;;;14.50;11.43;;;;;;;;;;5031849;28;20026;-58
2023/01/15 01:58:29;;;;;;;14.40;11.10;;;;;;;;;;5032979;28;20026;-61
2023/01/15 02:00:55;;;;;;;14.35;10.95;;;;;;;;;;5032974;28;20029;-59
2023/01/15 02:03:23;;;;;;;14.43;11.20;;;;;;;;;;5032765;28;20394;-59
2023/01/15 02:05:52;;;;;;;14.38;10.90;;;;;;;;;;5032496;28;20485;-61
2023/01/15 02:08:18;;;;;;;14.18;10.45;;;;;;;;;;5031488;28;20025;-61
2023/01/15 02:10:46;;;;;;;14.20;10.40;;;;;;;;;;5032676;28;20183;-61
2023/01/15 02:13:25;;;;;;;14.00;10.02;;;;;;;;;;5032302;28;20037;-61
2023/01/15 02:15:55;;;;;;;13.90;9.57;;;;;;;;;;5032972;28;20152;-58
2023/01/15 02:18:34;;;;;;;15.00;11.90;;;;;;;;;;5032484;28;20033;-59
2023/01/15 02:21:00;;;;;;;;;;;;;;;;;;5032053;28;20489;-60
2023/01/15 02:23:44;;;;;;;13.88;9.50;;;;;;;;;;5032581;28;19924;-59
2023/01/15 02:26:16;;;;;;;13.85;9.30;;;;;;;;;;5031685;28;20033;-59
2023/01/15 02:28:44;;;;;;;14.20;9.60;;;;;;;;;;5032776;28;20474;-62
2023/01/15 02:31:22;;;;;;;13.63;9.00;;;;;;;;;;5032779;28;20018;-56
2023/01/15 02:34:03;;;;;;;13.80;9.20;;;;;;;;;;5032631;28;20061;-59
2023/01/15 02:36:31;;;;;;;13.82;9.40;;;;;;;;;;5032303;28;20034;-58
2023/01/15 02:38:58;;;;;;;13.63;8.77;;;;;;;;;;5032341;28;20036;-62
2023/01/15 02:41:26;;;;;;;13.68;9.00;;;;;;;;;;5032174;28;20377;-59
2023/01/15 02:43:54;;;;;;;13.55;8.60;;;;;;;;;;5032226;28;20418;-59
2023/01/15 02:46:22;;;;;;;14.88;9.68;;;;;;;;;;5031010;28;20087;-61
2023/01/15 02:48:52;;;;;;;13.70;8.90;;;;;;;;;;5032066;28;20029;-60
2023/01/15 02:51:21;;;;;;;13.52;8.50;;;;;;;;;;5032094;28;20121;-58
2023/01/15 02:53:48;;;;;;;13.60;8.70;;;;;;;;;;5031956;28;20399;-61
2023/01/15 02:56:22;;;;;;;13.50;8.50;;;;;;;;;;5030583;28;20083;-59
2023/01/15 02:58:52;;;;;;;13.48;8.40;;;;;;;;;;5030613;28;20383;-59
2023/01/15 03:01:25;;;;;;;13.57;8.70;;;;;;;;;;5030585;28;20025;-61
2023/01/15 03:03:51;;;;;;;13.43;8.30;;;;;;;;;;5031901;28;20039;-59
2023/01/15 03:06:21;;;;;;;13.38;8.15;;;;;;;;;;5031978;28;20108;-61
2023/01/15 03:08:47;;;;;;;13.35;8.02;;;;;;;;;;5031820;28;20045;-60
2023/01/15 03:11:15;;;;;;;13.13;7.93;;;;;;;;;;5030581;28;20454;-61
2023/01/15 03:13:59;;;;;;;13.25;7.90;;;;;;;;;;5031706;28;20378;-61
2023/01/15 03:16:39;;;;;;;13.43;8.18;;;;;;;;;;5031127;28;20033;-57
2023/01/15 03:19:17;;;;;;;12.73;7.45;;;;;;;;;;5031745;28;20036;-61
2023/01/15 03:21:43;;;;;;;13.38;8.00;;;;;;;;;;5030642;28;20117;-61
2023/01/15 03:24:09;;;;;;;12.95;7.53;;;;;;;;;;5031418;28;20160;-60
2023/01/15 03:26:35;;;;;;;13.02;7.60;;;;;;;;;;5031563;28;20022;-61
2023/01/15 03:29:02;;;;;;;12.55;7.35;;;;;;;;;;5030532;28;20024;-61
2023/01/15 03:31:29;;;;;;;12.88;7.50;;;;;;;;;;5031799;28;20029;-61
2023/01/15 03:33:55;;;;;;;12.43;7.25;;;;;;;;;;5031393;28;20064;-62
2023/01/15 03:36:21;;;;;;;12.05;7.07;;;;;;;;;;5032010;28;20022;-62
2023/01/15 03:38:49;;;;;;;12.70;7.43;;;;;;;;;;5035951;28;20107;-62
2023/01/15 03:41:15;;;;;;;16.60;9.57;;;;;;;;;;5041251;28;20014;-61
2023/01/15 03:43:41;;;;;;;12.68;7.40;;;;;;;;;;5032848;28;20036;-58
2023/01/15 03:46:27;;;;;;;12.00;7.05;;;;;;;;;;5031102;28;20025;-59
2023/01/15 03:49:03;;;;;;;13.48;8.52;;;;;;;;;;5024400;28;20053;-60
2023/01/15 03:51:43;;;;;;;11.50;6.80;;;;;;;;;;5030354;28;20052;-60
2023/01/15 03:54:15;;;;;;;12.30;7.20;;;;;;;;;;5031162;28;20026;-60
2023/01/15 03:56:47;;;;;;;12.20;7.18;;;;;;;;;;5031448;28;20414;-62
2023/01/15 03:59:16;;;;;;;12.10;7.10;;;;;;;;;;5031369;28;20413;-61
2023/01/15 04:01:44;;;;;;;12.32;7.28;;;;;;;;;;5030128;28;20036;-62
2023/01/15 04:04:10;;;;;;;11.80;6.90;;;;;;;;;;5031114;28;20033;-60
2023/01/15 04:06:38;;;;;;;11.90;7.00;;;;;;;;;;5031232;28;20018;-63
2023/01/15 04:09:05;;;;;;;11.57;6.77;;;;;;;;;;5031443;28;20095;-62
2023/01/15 04:11:31;;;;;;;11.73;6.88;;;;;;;;;;5031405;28;20483;-61
2023/01/15 04:13:57;;;;;;;12.05;7.07;;;;;;;;;;5031251;28;20100;-62
2023/01/15 04:16:25;;;;;;;11.77;6.90;;;;;;;;;;5029938;28;20125;-63
2023/01/15 04:18:51;;;;;;;11.55;6.78;;;;;;;;;;5029840;28;20033;-64
2023/01/15 04:21:17;;;;;;;11.20;6.60;;;;;;;;;;5030046;28;20018;-63
2023/01/15 04:23:43;;;;;;;11.20;6.60;;;;;;;;;;5031071;28;20385;-60
2023/01/15 04:26:09;;;;;;;11.57;6.85;;;;;;;;;;5031239;28;20024;-61
2023/01/15 04:28:38;;;;;;;11.52;6.82;;;;;;;;;;5031423;28;20025;-65
2023/01/15 04:31:04;;;;;;;11.70;6.88;;;;;;;;;;5033595;28;20026;-63
2023/01/15 04:33:30;;;;;;;11.32;6.68;;;;;;;;;;5032997;28;20037;-61
2023/01/15 04:36:00;;;;;;;12.00;7.00;;;;;;;;;;5034376;28;20026;-64
2023/01/15 04:38:26;;;;;;;11.50;6.80;;;;;;;;;;5033052;28;20029;-61
2023/01/15 04:46:22;;;;;;;11.65;6.85;;;;;;;;;;5034584;28;20041;-63
2023/01/15 04:48:48;;;;;;;12.32;7.20;;;;;;;;;;5034343;28;20109;-63
2023/01/15 04:51:14;;;;;;;12.10;7.10;;;;;;;;;;5034456;28;20080;-61
2023/01/15 04:53:40;;;;;;;12.82;7.50;;;;;;;;;;5034157;28;20414;-61
2023/01/15 04:56:06;;;;;;;12.10;7.10;;;;;;;;;;5034274;28;20021;-63
2023/01/15 04:58:33;;;;;;;12.15;7.10;;;;;;;;;;5034218;28;20032;-64
2023/01/15 05:00:59;;;;;;;12.07;7.10;;;;;;;;;;5034090;28;20028;-63
2023/01/15 05:03:26;;;;;;;11.68;6.80;;;;;;;;;;5033910;28;20032;-61
2023/01/15 05:05:52;;;;;;;34.15;9.77;;;;;;;;;;5032773;28;20024;-61
2023/01/15 05:08:18;;;;;;;11.77;6.90;;;;;;;;;;5032831;28;20026;-61
2023/01/15 05:10:44;;;;;;;12.05;7.05;;;;;;;;;;5032822;28;20037;-61
2023/01/15 05:13:10;;;;;;;11.80;6.88;;;;;;;;;;5033865;28;20029;-63
2023/01/15 05:15:37;;;;;;;11.48;6.75;;;;;;;;;;5034173;28;20121;-60
2023/01/15 05:18:03;;;;;;;12.07;7.00;;;;;;;;;;5033807;28;20033;-63
2023/01/15 05:20:29;;;;;;;11.55;6.80;;;;;;;;;;5033952;28;20087;-64
2023/01/15 05:22:55;;;;;;;11.40;6.70;;;;;;;;;;5033893;28;20521;-62
2023/01/15 05:25:22;;;;;;;11.27;6.60;;;;;;;;;;5033807;28;20104;-62
2023/01/15 05:27:48;;;;;;;11.52;6.75;;;;;;;;;;5033568;28;20053;-62
2023/01/15 05:30:14;;;;;;;13.73;7.55;;;;;;;;;;5032250;28;20025;-60
2023/01/15 05:32:40;;;;;;;12.32;7.18;;;;;;;;;;5033728;28;20032;-63
2023/01/15 05:35:06;;;;;;;12.23;7.10;;;;;;;;;;5033620;28;20504;-61
2023/01/15 05:37:32;;;;;;;12.10;7.10;;;;;;;;;;5032171;28;20026;-62
2023/01/15 05:39:58;;;;;;;12.23;7.15;;;;;;;;;;5033058;28;20037;-63
2023/01/15 05:42:24;;;;;;;12.52;7.30;;;;;;;;;;5037716;28;20029;-63
2023/01/15 05:44:50;;;;;;;12.20;7.10;;;;;;;;;;5034638;28;20022;-64
2023/01/15 05:47:16;;;;;;;12.52;7.30;;;;;;;;;;5033588;28;20049;-62
2023/01/15 05:49:42;;;;;;;12.40;7.25;;;;;;;;;;5033298;28;20064;-62
2023/01/15 05:52:08;;;;;;;12.23;7.20;;;;;;;;;;5033062;28;20017;-61
2023/01/15 05:54:35;;;;;;;12.57;7.38;;;;;;;;;;5031602;28;20051;-61
2023/01/15 05:57:01;;;;;;;12.40;7.28;;;;;;;;;;5033011;28;20087;-62
2023/01/15 05:59:28;;;;;;;12.80;7.50;;;;;;;;;;5033203;28;20037;-62
2023/01/15 06:01:55;;;;;;;14.10;8.07;;;;;;;;;;5033062;28;20440;-62
2023/01/15 06:04:21;;;;;;;12.38;7.28;;;;;;;;;;5032668;28;20084;-63
2023/01/15 06:06:47;;;;;;;12.73;7.43;;;;;;;;;;5032755;28;20022;-61
2023/01/15 06:09:14;;;;;;;12.60;7.40;;;;;;;;;;5032766;28;20025;-63
2023/01/15 06:11:40;;;;;;;12.13;7.00;;;;;;;;;;5032947;28;20409;-62
2023/01/15 06:14:06;;;;;;;12.48;7.30;;;;;;;;;;5031422;28;20102;-62
2023/01/15 06:16:32;;;;;;;12.80;7.75;;;;;;;;;;5032577;28;20136;-61
2023/01/15 06:19:03;;;;;;;12.70;7.38;;;;;;;;;;5039152;23;20061;-56
2023/01/15 06:21:29;;;;;;;12.30;7.20;;;;;;;;;;5012652;28;20402;-59
2023/01/15 06:23:55;;;;;;;12.70;7.40;;;;;;;;;;5012481;28;20718;-59
2023/01/15 06:26:21;;;;;;;12.68;7.45;;;;;;;;;;5012710;28;20108;-59
2023/01/15 06:28:47;;;;;;;11.88;6.97;;;;;;;;;;5012529;28;20105;-59
2023/01/15 06:31:15;;;;;;;11.63;6.80;;;;;;;;;;5011253;28;20512;-60
2023/01/15 06:33:42;;;;;;;11.90;7.00;;;;;;;;;;5012344;28;20037;-60
2023/01/15 06:36:09;;;;;;;11.93;7.00;;;;;;;;;;5011081;28;20076;-58
2023/01/15 06:38:36;;;;;;;11.75;6.90;;;;;;;;;;5012383;28;20021;-58
2023/01/15 06:41:02;;;;;;;12.90;8.35;;;;;;;;;;5012363;28;20080;-56
2023/01/15 06:49:17;;;;;;;11.73;6.90;;;;;;;;;;4990198;28;20026;-60
2023/01/15 06:51:43;;;;;;;12.10;7.10;;;;;;;;;;4973031;28;20519;-58
2023/01/15 06:54:09;;;;;;;11.70;6.80;;;;;;;;;;5000235;28;20042;-57
2023/01/15 06:56:35;;;;;;;11.57;6.80;;;;;;;;;;5012100;28;20105;-60
2023/01/15 06:59:01;;;;;;;12.05;7.10;;;;;;;;;;5010752;28;20151;-58
2023/01/15 07:01:29;;;;;;;11.70;6.85;;;;;;;;;;5009933;28;20025;-61
2023/01/15 07:03:55;;;;;;;11.48;6.70;;;;;;;;;;5011665;28;20026;-61
2023/01/15 07:06:21;;;;;;;11.70;6.88;;;;;;;;;;5011527;28;20512;-61
2023/01/15 07:08:47;;;;;;;11.02;6.45;;;;;;;;;;5011903;28;20109;-60
2023/01/15 07:11:14;;;;;;;11.40;6.70;;;;;;;;;;5012111;28;20105;-59
2023/01/15 07:13:40;;;;;;;11.32;6.70;;;;;;;;;;5011424;28;20037;-60
2023/01/15 07:16:25;;;;;;;11.10;6.50;;;;;;;;;;5011887;28;20474;-60
2023/01/15 07:18:51;;;;;;;11.30;6.63;;;;;;;;;;5010100;28;20057;-57
2023/01/15 07:21:17;;;;;;;11.30;6.75;;;;;;;;;;5010508;28;20034;-59
2023/01/15 07:23:43;;;;;;;11.43;6.70;;;;;;;;;;5010393;28;20088;-59
2023/01/15 07:26:09;;;;;;;11.63;7.07;;;;;;;;;;5010731;28;20022;-58
2023/01/15 07:28:35;;;;;;;12.10;7.65;;;;;;;;;;5010539;28;20479;-60
2023/01/15 07:31:01;;;;;;;10.43;6.15;;;;;;;;;;5011798;28;20044;-57
2023/01/15 07:33:27;;;;;;;11.05;6.55;;;;;;;;;;5011613;28;20109;-60
2023/01/15 07:35:53;;;;;;;10.70;6.30;;;;;;;;;;5011877;28;20087;-60
2023/01/15 07:38:19;;;;;;;10.93;7.10;;;;;;;;;;5011766;28;20069;-57
2023/01/15 07:49:44;;;;;;;10.75;6.35;;;;;;;;;;5011656;28;20037;-61
2023/01/15 07:51:45;;;;;;;10.40;6.10;;;;;;;;;;5011796;28;20037;-59
2023/01/15 07:54:10;;;;;;;9.60;5.70;;;;;;;;;;5010078;28;20394;-59
2023/01/15 07:56:37;;;;;;;10.63;6.32;;;;;;;;;;5011543;28;20108;-58
2023/01/15 07:59:03;;;;;;;11.80;7.38;;;;;;;;;;5011299;28;20555;-58
2023/01/15 08:01:29;;;;;;;10.75;6.30;;;;;;;;;;5010174;28;20021;-61
2023/01/15 08:03:55;;;;;;;12.23;8.20;;;;;;;;;;5013429;28;20025;-61
2023/01/15 08:06:21;;;;;;;10.55;6.22;;;;;;;;;;5015160;28;20024;-59
2023/01/15 08:08:47;;;;;;;10.77;6.40;;;;;;;;;;5013715;28;20018;-59
2023/01/15 08:16:42;;;;;;;10.18;6.00;;;;;;;;;;5014864;28;20029;-60
2023/01/15 08:19:08;;;;;;;9.80;5.80;;;;;;;;;;5014588;28;20026;-59
2023/01/15 08:21:34;;;;;;;10.18;6.00;;;;;;;;;;5014841;28;20521;-60
2023/01/15 08:24:00;;;;;;;10.55;6.50;;;;;;;;;;5014614;28;20079;-61
2023/01/15 08:26:26;;;;;;;9.48;5.57;;;;;;;;;;5013453;28;20030;-58
2023/01/15 08:28:52;;;;;;;9.70;5.70;;;;;;;;;;5013353;28;20045;-65
2023/01/15 08:31:18;;;;;;;9.52;5.70;;;;;;;;;;5013132;28;20018;-59
2023/01/15 08:33:44;;;;;;;9.55;5.65;;;;;;;;;;5014306;28;20486;-55
2023/01/15 08:36:10;;;;;;;9.90;6.07;;;;;;;;;;5014388;28;20026;-60
2023/01/15 08:38:36;;;;;;;9.73;5.80;;;;;;;;;;5014426;28;20029;-57
2023/01/15 08:41:02;;;;;;;10.05;6.00;;;;;;;;;;5013176;28;20095;-59
2023/01/15 08:43:29;;;;;;;10.60;6.72;;;;;;;;;;5014133;28;20390;-55
2023/01/15 08:45:59;;;;;;;9.38;5.55;;;;;;;;;;5014227;28;20056;-62
2023/01/15 08:48:26;;;;;;;9.70;5.70;;;;;;;;;;5014045;28;20050;-57
2023/01/15 08:50:52;;;;;;;21.17;6.90;;;;;;;;;;5014219;28;20073;-61
2023/01/15 08:53:19;;;;;;;19.40;6.97;;;;;;;;;;5013934;28;20033;-62
2023/01/15 08:55:45;;;;;;;22.73;9.02;;;;;;;;;;5014134;28;20487;-60
2023/01/15 08:58:11;;;;;;;19.38;8.35;;;;;;;;;;5012784;28;20062;-62
2023/01/15 09:00:37;;;;;;;12.73;6.85;;;;;;;;;;5013879;28;20038;-60
2023/01/15 09:03:03;;;;;;;14.45;6.47;;;;;;;;;;5013719;28;20080;-62
2023/01/15 09:05:30;;;;;;;17.13;7.15;;;;;;;;;;5014119;28;20065;-59
2023/01/15 09:07:56;;;;;;;17.08;7.15;;;;;;;;;;5013857;28;20030;-57
2023/01/15 09:10:22;;;;;;;14.18;6.18;;;;;;;;;;5012636;28;20645;-60
2023/01/15 09:12:48;;;;;;;13.77;6.43;;;;;;;;;;5013872;28;20426;-64
2023/01/15 09:15:14;;;;;;;16.38;7.63;;;;;;;;;;5012419;28;20375;-60
2023/01/15 09:17:40;;;;;;;17.38;6.93;;;;;;;;;;5013260;28;20038;-62
2023/01/15 09:20:08;;;;;;;14.27;6.35;;;;;;;;;;5012399;28;20026;-59
2023/01/15 09:22:34;;;;;;;16.90;8.23;;;;;;;;;;5013753;28;20029;-61
2023/01/15 09:25:00;;;;;;;16.15;7.00;;;;;;;;;;5013291;28;20022;-61
2023/01/15 09:27:27;;;;;;;15.05;6.60;;;;;;;;;;5012195;28;20060;-63
2023/01/15 09:29:53;;;;;;;14.75;6.90;;;;;;;;;;5013586;28;20036;-54
2023/01/15 09:32:19;;;;;;;15.13;7.50;;;;;;;;;;5013410;28;20054;-62
2023/01/15 09:34:45;;;;;;;15.18;6.75;;;;;;;;;;5013100;28;20037;-61
2023/01/15 09:37:11;;;;;;;17.95;7.70;;;;;;;;;;5011729;28;20030;-63
2023/01/15 09:39:39;;;;;;;12.93;6.20;;;;;;;;;;5012076;28;20026;-60
2023/01/15 09:42:07;;;;;;;16.73;7.75;;;;;;;;;;5012951;28;20474;-60
2023/01/15 09:44:47;;;;;;;14.23;7.10;;;;;;;;;;5012267;28;20032;-60
2023/01/15 09:47:24;;;;;;;19.30;7.30;;;;;;;;;;5011124;28;20552;-59
2023/01/15 09:49:57;;;;;;;17.38;6.63;;;;;;;;;;5012676;28;20070;-60
2023/01/15 09:52:38;;;;;;;16.52;7.18;;;;;;;;;;5012990;28;20037;-60
2023/01/15 09:55:04;;;;;;;15.02;7.03;;;;;;;;;;5011693;28;20030;-59
2023/01/15 09:57:31;;;;;;;19.55;7.05;;;;;;;;;;5011653;28;20487;-61
2023/01/15 10:00:01;;;;;;;15.25;7.22;;;;;;;;;;5012991;28;20398;-60
2023/01/15 10:02:45;;;;;;;15.65;7.50;;;;;;;;;;5012753;28;20103;-62
2023/01/15 10:05:20;;;;;;;17.15;7.07;;;;;;;;;;5011483;28;20026;-57
2023/01/15 10:07:56;;;;;;;13.93;6.78;;;;;;;;;;5013286;28;20160;-60
2023/01/15 10:10:24;;;;;;;15.20;7.00;;;;;;;;;;5011455;28;20034;-58
2023/01/15 10:12:54;;;;;;;18.90;8.05;;;;;;;;;;5011454;28;20022;-58
2023/01/15 10:15:23;;;;;;;18.23;7.10;;;;;;;;;;5012149;28;20113;-60
2023/01/15 10:17:49;;;;;;;13.48;6.50;;;;;;;;;;5011881;28;20034;-60
2023/01/15 10:20:16;;;;;;;15.68;7.32;;;;;;;;;;5012444;28;20037;-58
2023/01/15 10:22:54;;;;;;;18.52;7.63;;;;;;;;;;5013117;28;20398;-62
2023/01/15 10:25:24;;;;;;;16.60;6.80;;;;;;;;;;5011056;28;20030;-63
2023/01/15 10:27:51;;;;;;;13.90;6.60;;;;;;;;;;5012447;28;20067;-61
2023/01/15 10:30:20;;;;;;;14.90;6.50;;;;;;;;;;5012437;28;20437;-62
2023/01/15 10:32:52;;;;;;;16.55;6.80;;;;;;;;;;5011149;28;20533;-62
2023/01/15 10:35:33;;;;;;;13.00;6.60;;;;;;;;;;5012314;28;20034;-61
2023/01/15 10:38:02;;;;;;;37.53;8.07;;;;;;;;;;5012444;28;20413;-59
2023/01/15 10:40:51;;;;;;;17.73;7.10;;;;;;;;;;5012018;28;20040;-62
2023/01/15 10:43:17;;;;;;;14.02;6.60;;;;;;;;;;5006508;28;20092;-58
2023/01/15 10:45:46;;;;;;;12.77;6.65;;;;;;;;;;5011225;28;20026;-62
2023/01/15 10:48:18;;;;;;;14.60;6.70;;;;;;;;;;5012377;28;20022;-62
2023/01/15 10:50:45;;;;;;;16.35;7.43;;;;;;;;;;5011968;28;20360;-61
2023/01/15 10:53:20;;;;;;;12.32;6.63;;;;;;;;;;5010828;28;20033;-60
2023/01/15 10:55:52;;;;;;;12.93;7.32;;;;;;;;;;5012237;28;20434;-63
2023/01/15 10:58:30;;;;;;;15.20;6.65;;;;;;;;;;5012194;28;20033;-61
2023/01/15 11:01:10;;;;;;;11.88;6.47;;;;;;;;;;5012099;28;20101;-59
2023/01/15 11:03:37;;;;;;;15.00;6.50;;;;;;;;;;5011299;28;20109;-61
2023/01/15 11:06:04;;;;;;;13.73;6.28;;;;;;;;;;5012110;28;20483;-61
2023/01/15 11:08:31;;;;;;;12.65;6.25;;;;;;;;;;5012508;28;20022;-62
2023/01/15 11:10:58;;;;;;;18.73;7.22;;;;;;;;;;5012074;28;20040;-59
2023/01/15 11:21:49;;;;;;;16.58;8.13;;;;;;;;;;5012296;28;20049;-60
2023/01/15 11:24:16;;;;;;;16.17;6.75;;;;;;;;;;5012076;28;20029;-59
2023/01/15 11:26:46;;;;;;;13.45;6.45;;;;;;;;;;5010842;28;20030;-56
2023/01/15 11:29:14;;;;;;;14.57;6.70;;;;;;;;;;5010563;28;20030;-61
2023/01/15 11:31:40;;;;;;;16.67;6.75;;;;;;;;;;5011735;28;20058;-63
2023/01/15 11:34:17;;;;;;;19.17;7.22;;;;;;;;;;5011547;28;20030;-62
2023/01/15 11:36:43;;;;;;;16.40;7.45;;;;;;;;;;5011762;28;20037;-61
2023/01/15 11:39:23;;;;;;;15.18;7.15;;;;;;;;;;4662286;28;10000377;-61
2023/01/15 11:53:00;;;;;;;15.63;6.70;;;;;;;;;;5012878;28;20861;-62
2023/01/15 11:55:27;;;;;;;13.35;5.97;;;;;;;;;;5012570;28;20030;-62
2023/01/15 11:57:54;;;;;;;13.98;6.07;;;;;;;;;;5012187;28;20053;-63
2023/01/15 12:00:25;;;;;;;14.18;6.35;;;;;;;;;;5012051;28;20061;-64
2023/01/15 12:02:53;;;;;;;14.65;6.70;;;;;;;;;;5012166;28;20022;-65
2023/01/15 12:05:24;;;;;;;19.40;7.15;;;;;;;;;;5011942;28;20049;-63
2023/01/15 12:07:52;;;;;;;16.13;6.53;;;;;;;;;;5010919;28;20502;-64
2023/01/15 12:13:06;;;;;;;;;;;;;;;;;;5012608;28;20585;-64
2023/01/15 12:15:33;;;;;;;16.20;6.97;;;;;;;;;;5012054;28;20000;-63
2023/01/15 12:17:59;;;;;;;12.65;6.00;;;;;;;;;;5034246;23;20129;-63
2023/01/15 12:20:29;;;;;;;15.88;6.57;;;;;;;;;;5011951;28;20572;-65
2023/01/15 12:22:58;;;;;;;14.82;6.72;;;;;;;;;;5012638;28;20076;-64
2023/01/15 12:25:30;;;;;;;24.67;7.65;;;;;;;;;;5011610;28;20069;-64
2023/01/15 12:28:06;;;;;;;17.33;6.85;;;;;;;;;;5016315;28;20029;-63
2023/01/15 12:30:37;;;;;;;18.08;6.53;;;;;;;;;;5035955;28;20040;-66
2023/01/15 12:33:10;;;;;;;15.40;7.20;;;;;;;;;;5037568;28;20025;-64
2023/01/15 12:35:37;;;;;;;16.27;7.03;;;;;;;;;;5035925;28;20034;-63
2023/01/15 12:38:12;;;;;;;11.80;6.43;;;;;;;;;;5034914;28;20040;-63
2023/01/15 12:40:39;;;;;;;17.45;6.85;;;;;;;;;;5034501;28;20033;-63
2023/01/15 12:45:56;;;;;;;;;;;;;;;;;;5035162;28;20040;-63
2023/01/15 12:48:41;;;;;;;18.85;7.93;;;;;;;;;;5032751;28;19916;-63
2023/01/15 12:51:11;;;;;;;19.90;8.40;;;;;;;;;;5010700;28;20120;-64
2023/01/15 12:53:43;;;;;;;13.27;6.55;;;;;;;;;;5012469;28;20026;-64
2023/01/15 12:56:09;;;;;;;13.35;6.45;;;;;;;;;;5014069;28;20058;-63
2023/01/15 12:58:41;;;;;;;17.55;8.10;;;;;;;;;;5014202;28;20069;-65
2023/01/15 13:01:31;;;;;;;14.23;6.82;;;;;;;;;;5012487;28;20490;-64
2023/01/15 13:04:00;;;;;;;14.27;6.53;;;;;;;;;;5013759;28;20028;-63
2023/01/15 13:06:27;;;;;;;13.40;6.22;;;;;;;;;;5013877;28;20394;-65
2023/01/15 13:09:00;;;;;;;15.13;6.90;;;;;;;;;;5012559;28;20042;-62
2023/01/15 13:11:26;;;;;;;12.65;6.70;;;;;;;;;;5013644;28;20620;-63
2023/01/15 13:13:58;;;;;;;14.63;6.95;;;;;;;;;;5012194;28;20048;-64
2023/01/15 13:16:24;;;;;;;17.50;6.80;;;;;;;;;;5013755;28;20026;-62
2023/01/15 13:19:07;;;;;;;14.93;6.57;;;;;;;;;;5013345;28;20064;-64
2023/01/15 13:21:36;;;;;;;15.02;7.00;;;;;;;;;;5013441;28;20057;-64
2023/01/15 13:24:07;;;;;;;13.68;6.88;;;;;;;;;;5012097;28;20030;-63
2023/01/15 13:26:40;;;;;;;14.27;6.50;;;;;;;;;;5012333;28;20026;-59
2023/01/15 13:29:10;;;;;;;16.88;6.72;;;;;;;;;;5013572;28;20022;-63
2023/01/15 13:31:45;;;;;;;14.45;6.70;;;;;;;;;;5012306;28;20018;-64
2023/01/15 13:34:21;;;;;;;15.32;6.50;;;;;;;;;;5013098;28;20549;-64
2023/01/15 13:36:47;;;;;;;12.15;6.03;;;;;;;;;;5012088;28;20117;-66
2023/01/15 13:39:17;;;;;;;14.07;6.43;;;;;;;;;;4669577;28;9999897;-63
2023/01/15 13:44:34;;;;;;;19.30;7.32;;;;;;;;;;5030011;28;20585;-65
2023/01/15 13:47:03;;;;;;;12.55;6.22;;;;;;;;;;5028884;28;20025;-65
2023/01/15 13:49:34;;;;;;;14.32;6.55;;;;;;;;;;5030104;28;20025;-64
2023/01/15 13:52:03;;;;;;;13.60;6.18;;;;;;;;;;5030533;28;20042;-65
2023/01/15 13:54:30;;;;;;;17.38;6.45;;;;;;;;;;5028646;28;20045;-64
2023/01/15 13:57:07;;;;;;;14.98;7.57;;;;;;;;;;5029532;28;20029;-64
2023/01/15 13:59:44;;;;;;;17.85;6.90;;;;;;;;;;5030075;28;20370;-64
2023/01/15 14:02:19;;;;;;;13.00;6.47;;;;;;;;;;5028354;28;20024;-65
2023/01/15 14:04:46;;;;;;;13.98;6.22;;;;;;;;;;5029689;28;20121;-64
2023/01/15 14:07:22;;;;;;;13.57;6.47;;;;;;;;;;5028645;28;20746;-65
2023/01/15 14:09:49;;;;;;;15.32;7.38;;;;;;;;;;5030228;28;20762;-65
2023/01/15 14:12:35;;;;;;;15.27;6.40;;;;;;;;;;5028510;28;20426;-65
2023/01/15 14:15:20;;;;;;;15.07;6.50;;;;;;;;;;5029552;28;20444;-65
2023/01/15 14:17:46;;;;;;;13.68;6.63;;;;;;;;;;5027930;28;20033;-64
2023/01/15 14:20:16;;;;;;;11.77;6.15;;;;;;;;;;5029849;28;20039;-65
2023/01/15 14:23:05;;;;;;;12.68;6.50;;;;;;;;;;5029754;28;20033;-65
2023/01/15 14:25:49;;;;;;;13.20;7.30;;;;;;;;;;4992873;28;20037;-64
2023/01/15 14:28:21;;;;;;;16.13;7.07;;;;;;;;;;5030206;28;20026;-64
2023/01/15 14:30:47;;;;;;;11.88;6.38;;;;;;;;;;5030443;28;20087;-65
2023/01/15 14:33:16;;;;;;;14.00;6.07;;;;;;;;;;5013995;28;20447;-65
2023/01/15 14:35:44;;;;;;;12.10;6.15;;;;;;;;;;5010951;28;20022;-65
2023/01/15 14:38:10;;;;;;;;;;;;;;;;;;5010222;28;20033;-65
2023/01/15 14:40:39;;;;;;;14.52;7.22;;;;;;;;;;5022011;28;20328;-64
2023/01/15 14:43:14;;;;;;;12.00;6.60;;;;;;;;;;5025043;28;20033;-65
2023/01/15 14:45:42;;;;;;;13.32;6.53;;;;;;;;;;5029284;28;20025;-65
2023/01/15 14:48:17;;;;;;;14.75;6.45;;;;;;;;;;5014130;28;20049;-65
2023/01/15 14:50:43;;;;;;;14.50;6.78;;;;;;;;;;5007912;28;20051;-64
2023/01/15 14:53:12;;;;;;;13.43;6.57;;;;;;;;;;5007647;28;20129;-64
2023/01/15 14:55:57;;;;;;;11.95;6.20;;;;;;;;;;5009289;28;20029;-65
2023/01/15 14:58:31;;;;;;;15.00;6.57;;;;;;;;;;5009272;28;20053;-65
2023/01/15 15:01:00;;;;;;;13.65;7.40;;;;;;;;;;5010406;28;20060;-65
2023/01/15 15:03:33;;;;;;;13.95;6.65;;;;;;;;;;5010519;28;20029;-65
2023/01/15 15:05:59;;;;;;;12.90;6.55;;;;;;;;;;5011969;28;20104;-66
2023/01/15 15:08:27;;;;;;;14.20;6.22;;;;;;;;;;5012041;28;20493;-60
2023/01/15 15:10:54;;;;;;;12.85;6.22;;;;;;;;;;5012160;28;20394;-66
2023/01/15 15:13:29;;;;;;;13.10;6.45;;;;;;;;;;5011111;28;20030;-67
2023/01/15 15:16:00;;;;;;;17.25;6.60;;;;;;;;;;5012267;28;20518;-66
2023/01/15 15:18:30;;;;;;;16.15;7.28;;;;;;;;;;5010731;28;20033;-64
2023/01/15 15:20:56;;;;;;;14.98;6.50;;;;;;;;;;5011757;28;20040;-63
2023/01/15 15:23:41;;;;;;;14.27;6.50;;;;;;;;;;5010305;28;20029;-62
2023/01/15 15:26:26;;;;;;;25.60;7.05;;;;;;;;;;5010311;28;20102;-63
2023/01/15 15:29:01;;;;;;;12.88;6.13;;;;;;;;;;5011463;28;20033;-64
2023/01/15 15:31:28;;;;;;;13.57;6.30;;;;;;;;;;5010452;28;20014;-62
2023/01/15 15:33:55;;;;;;;12.80;6.60;;;;;;;;;;5010012;28;20026;-64